Time;durP1;ratioP1;P1;durP2;ratioP2;P2;SDS_P1;SDS_P2;PMS_P1;PMS_P2;Temp;Humidity;BMP_temperature;BMP_pressure;BME280_temperature;BME280_humidity;BME280_pressure;Samples;Min_cycle;Max_cycle;Signal;HPM_P1;HPM_P2
2021/10/15 00:01:11;;;;;;;1999.90;999.90;;;;;;;5.79;100.00;95889.09;5046473;28;20199;-68
2021/10/15 00:03:38;;;;;;;1999.90;999.90;;;;;;;5.81;100.00;95886.25;5046648;28;20219;-68
2021/10/15 00:06:05;;;;;;;1999.90;999.90;;;;;;;5.69;100.00;95890.84;5046627;28;20258;-68
2021/10/15 00:08:32;;;;;;;1999.90;999.90;;;;;;;5.67;100.00;95887.75;5046750;28;20208;-68
2021/10/15 00:10:59;;;;;;;1999.90;999.90;;;;;;;5.69;100.00;95876.16;5046307;28;20204;-67
2021/10/15 00:13:27;;;;;;;1999.90;999.90;;;;;;;5.72;100.00;95883.41;5046384;28;20208;-68
2021/10/15 00:15:54;;;;;;;1999.90;999.90;;;;;;;5.81;100.00;95878.53;5045874;28;20661;-67
2021/10/15 00:18:22;;;;;;;1999.90;999.90;;;;;;;5.76;100.00;95875.94;5046499;28;20204;-68
2021/10/15 00:20:49;;;;;;;1999.90;999.90;;;;;;;5.77;100.00;95872.34;5046055;28;20205;-68
2021/10/15 00:23:16;;;;;;;1999.90;999.90;;;;;;;5.70;100.00;95872.56;5047559;28;20582;-68
2021/10/15 00:25:43;;;;;;;1999.90;999.90;;;;;;;5.76;100.00;95875.94;5049655;28;20200;-68
2021/10/15 00:28:11;;;;;;;1999.90;999.90;;;;;;;5.72;100.00;95873.09;5049644;28;20225;-68
2021/10/15 00:30:38;;;;;;;1999.90;999.90;;;;;;;5.80;100.00;95861.50;5049366;28;20237;-67
2021/10/15 00:33:05;;;;;;;1999.90;999.90;;;;;;;5.77;100.00;95867.94;5049859;28;20204;-67
2021/10/15 00:35:34;;;;;;;1999.90;999.90;;;;;;;5.70;100.00;95864.81;5049830;28;20197;-68
2021/10/15 00:38:01;;;;;;;1999.90;999.90;;;;;;;5.72;100.00;95862.78;5049466;28;20578;-68
2021/10/15 00:40:28;;;;;;;1999.90;999.90;;;;;;;5.66;100.00;95863.78;5049401;28;20754;-68
2021/10/15 00:42:55;;;;;;;1999.90;999.90;;;;;;;5.70;100.00;95869.19;5049532;28;20200;-68
2021/10/15 00:45:22;;;;;;;1999.90;999.90;;;;;;;5.81;100.00;95865.63;5049305;28;20201;-68
2021/10/15 00:47:49;;;;;;;1999.90;999.90;;;;;;;5.78;100.00;95855.84;5049512;28;20220;-68
2021/10/15 00:50:16;;;;;;;1999.90;999.90;;;;;;;5.80;100.00;95856.34;5049227;28;20614;-68
2021/10/15 00:52:45;;;;;;;1999.90;999.90;;;;;;;5.81;100.00;95850.16;5049249;28;20679;-68
2021/10/15 00:55:12;;;;;;;1999.90;999.90;;;;;;;5.81;100.00;95845.00;5049230;28;20197;-68
2021/10/15 00:57:39;;;;;;;1999.90;999.90;;;;;;;5.85;100.00;95840.88;5049180;28;20687;-67
2021/10/15 01:00:08;;;;;;;1999.90;999.90;;;;;;;5.81;100.00;95850.94;5049400;28;20581;-68
2021/10/15 01:02:36;;;;;;;1999.90;999.90;;;;;;;5.84;100.00;95845.25;5049117;28;20208;-68
2021/10/15 01:05:04;;;;;;;1999.90;999.90;;;;;;;5.91;100.00;95839.91;5049176;28;20271;-68
2021/10/15 01:07:31;;;;;;;1999.90;999.90;;;;;;;5.84;100.00;95840.09;5049022;28;20250;-68
2021/10/15 01:10:00;;;;;;;1999.90;999.90;;;;;;;5.90;100.00;95839.13;5048952;28;20644;-68
2021/10/15 01:12:28;;;;;;;1999.90;999.90;;;;;;;5.84;100.00;95840.09;5048976;28;20197;-68
2021/10/15 01:14:55;;;;;;;1999.90;999.90;;;;;;;5.92;100.00;95831.91;5049291;28;20193;-67
2021/10/15 01:17:22;;;;;;;1999.90;999.90;;;;;;;5.84;100.00;95832.38;5048858;28;20739;-67
2021/10/15 01:19:54;;;;;;;1999.90;999.90;;;;;;;5.90;100.00;95826.22;5049041;28;20200;-67
2021/10/15 01:22:21;;;;;;;1999.90;999.90;;;;;;;5.87;100.00;95831.91;5048763;28;20624;-67
2021/10/15 01:24:48;;;;;;;1999.90;999.90;;;;;;;5.78;100.00;95830.81;5048793;28;20268;-68
2021/10/15 01:27:15;;;;;;;1999.90;999.90;;;;;;;5.81;100.00;95825.16;5048754;28;20220;-68
2021/10/15 01:29:42;;;;;;;1999.90;999.90;;;;;;;5.82;100.00;95820.78;5048647;28;20240;-68
2021/10/15 01:32:11;;;;;;;1999.90;999.90;;;;;;;5.74;100.00;95822.03;5048935;28;20195;-68
2021/10/15 01:34:38;;;;;;;1999.90;999.90;;;;;;;5.82;100.00;95818.97;5048685;28;20211;-68
2021/10/15 01:37:07;;;;;;;1999.90;999.90;;;;;;;5.84;100.00;95819.47;5048830;28;20700;-68
2021/10/15 01:39:34;;;;;;;1999.90;999.90;;;;;;;5.78;100.00;95815.31;5048586;28;20201;-68
2021/10/15 01:42:02;;;;;;;1999.90;999.90;;;;;;;5.84;100.00;95818.69;5048489;28;20199;-68
2021/10/15 01:44:29;;;;;;;1999.90;999.90;;;;;;;5.92;100.00;95808.72;5048403;28;20200;-68
2021/10/15 01:46:56;;;;;;;1999.90;999.90;;;;;;;5.93;100.00;95817.19;5048456;28;20234;-68
2021/10/15 01:49:23;;;;;;;1999.90;999.90;;;;;;;5.97;100.00;95813.09;5048377;28;20291;-68
2021/10/15 01:51:50;;;;;;;1999.90;999.90;;;;;;;5.98;100.00;95810.25;5048565;28;20257;-68
2021/10/15 01:54:19;;;;;;;1999.90;999.90;;;;;;;5.92;100.00;95800.19;5048216;28;20201;-68
2021/10/15 01:56:46;;;;;;;1999.90;999.90;;;;;;;5.80;100.00;95805.56;5048089;28;20201;-67
2021/10/15 01:59:13;;;;;;;1999.90;999.90;;;;;;;5.82;100.00;95802.72;5048243;28;20199;-68
2021/10/15 02:01:40;;;;;;;1999.90;999.90;;;;;;;5.85;100.00;95799.63;5048272;28;20608;-68
2021/10/15 02:04:07;;;;;;;1999.90;999.90;;;;;;;5.99;100.00;95800.69;5048105;28;20199;-68
2021/10/15 02:06:34;;;;;;;1999.90;999.90;;;;;;;6.00;100.00;95792.72;5048264;28;20570;-68
2021/10/15 02:09:02;;;;;;;1999.90;999.90;;;;;;;5.97;100.00;95792.47;5048003;28;20232;-68
2021/10/15 02:11:30;;;;;;;1999.90;999.90;;;;;;;6.10;100.00;95786.00;5047852;28;20687;-68
2021/10/15 02:13:57;;;;;;;1999.90;999.90;;;;;;;6.11;100.00;95796.09;5048266;28;20630;-68
2021/10/15 02:16:25;;;;;;;1999.90;999.90;;;;;;;6.10;100.00;95798.91;5048345;28;20198;-68
2021/10/15 02:18:52;;;;;;;1999.90;999.90;;;;;;;6.11;100.00;95792.72;5048148;28;20206;-68
2021/10/15 02:21:19;;;;;;;1999.90;999.90;;;;;;;6.13;100.00;95798.41;5048046;28;20232;-68
2021/10/15 02:23:46;;;;;;;1999.90;999.90;;;;;;;6.11;100.00;95797.88;5047383;28;20201;-68
2021/10/15 02:26:19;;;;;;;1999.90;999.90;;;;;;;6.14;100.00;95792.97;5047861;28;20204;-68
2021/10/15 02:28:48;;;;;;;1999.90;999.90;;;;;;;6.21;100.00;95795.31;5048345;28;20312;-68
2021/10/15 02:31:15;;;;;;;1999.90;999.90;;;;;;;6.17;100.00;95795.06;5047721;28;20305;-68
2021/10/15 02:33:43;;;;;;;1999.90;999.90;;;;;;;6.23;100.00;95793.22;5047882;28;20577;-68
2021/10/15 02:36:10;;;;;;;1999.90;999.90;;;;;;;6.15;100.00;95793.75;5048207;28;20253;-68
2021/10/15 02:38:37;;;;;;;1999.90;999.90;;;;;;;6.16;100.00;95792.72;5047993;28;20200;-68
2021/10/15 02:41:04;;;;;;;1999.90;999.90;;;;;;;6.28;100.00;95788.06;5047494;28;20701;-67
2021/10/15 02:43:31;;;;;;;1999.90;999.90;;;;;;;6.19;100.00;95787.03;5047701;28;20208;-67
2021/10/15 02:46:00;;;;;;;1999.90;999.90;;;;;;;6.17;100.00;95782.16;5046637;28;20199;-67
2021/10/15 02:48:27;;;;;;;1999.90;999.90;;;;;;;6.20;100.00;95771.31;5047301;28;20221;-68
2021/10/15 02:50:54;;;;;;;1999.90;999.90;;;;;;;6.24;100.00;95780.09;5047696;28;20201;-68
2021/10/15 02:53:21;;;;;;;1999.90;999.90;;;;;;;6.19;100.00;95779.31;5047297;28;20208;-68
2021/10/15 02:55:48;;;;;;;1999.90;999.90;;;;;;;6.19;100.00;95774.91;5047285;28;20193;-68
2021/10/15 02:58:16;;;;;;;1999.90;999.90;;;;;;;6.32;100.00;95773.66;5047442;28;20199;-67
2021/10/15 03:00:43;;;;;;;1999.90;999.90;;;;;;;6.35;100.00;95761.00;5047522;28;20201;-68
2021/10/15 03:03:11;;;;;;;1999.90;999.90;;;;;;;6.32;100.00;95769.25;5047156;28;20245;-68
2021/10/15 03:05:38;;;;;;;1999.90;999.90;;;;;;;6.26;100.00;95767.72;5047142;28;20198;-67
2021/10/15 03:08:06;;;;;;;1999.90;999.90;;;;;;;6.24;100.00;95769.75;5047117;28;20253;-67
2021/10/15 03:10:33;;;;;;;1999.90;999.90;;;;;;;6.19;100.00;95769.00;5047080;28;20201;-68
2021/10/15 03:13:00;;;;;;;1999.90;999.90;;;;;;;6.19;100.00;95764.59;5047021;28;20200;-68
2021/10/15 03:15:27;;;;;;;1999.90;999.90;;;;;;;6.22;100.00;95764.09;5047019;28;20215;-68
2021/10/15 03:17:54;;;;;;;1999.90;999.90;;;;;;;6.25;100.00;95765.38;5046901;28;20189;-68
2021/10/15 03:20:23;;;;;;;1999.90;999.90;;;;;;;6.33;100.00;95757.09;5046937;28;20203;-68
2021/10/15 03:22:50;;;;;;;1999.90;999.90;;;;;;;6.37;100.00;95760.75;5047256;28;20193;-68
2021/10/15 03:25:18;;;;;;;1999.90;999.90;;;;;;;6.33;100.00;95755.31;5047270;28;20258;-68
2021/10/15 03:27:45;;;;;;;1999.90;999.90;;;;;;;6.40;100.00;95753.25;5046714;28;20223;-68
2021/10/15 03:30:12;;;;;;;1999.90;999.90;;;;;;;6.46;100.00;95741.09;5046507;28;20231;-68
2021/10/15 03:32:39;;;;;;;1999.90;999.90;;;;;;;6.37;100.00;95740.09;5046663;28;20213;-67
2021/10/15 03:35:07;;;;;;;1999.90;999.90;;;;;;;6.38;100.00;95731.28;5047041;28;20205;-67
2021/10/15 03:37:35;;;;;;;1999.90;999.90;;;;;;;6.38;100.00;95732.06;5047041;28;20211;-67
2021/10/15 03:40:03;;;;;;;1999.90;999.90;;;;;;;6.38;100.00;95736.47;5046790;28;20201;-66
2021/10/15 03:42:30;;;;;;;1999.90;999.90;;;;;;;6.29;100.00;95743.19;5046672;28;20200;-67
2021/10/15 03:44:57;;;;;;;1999.90;999.90;;;;;;;6.36;100.00;95739.31;5046683;28;20984;-67
2021/10/15 03:47:24;;;;;;;1999.90;999.90;;;;;;;6.44;100.00;95741.34;5046758;28;20196;-67
2021/10/15 03:49:52;;;;;;;1999.90;999.90;;;;;;;6.43;100.00;95752.72;5046406;28;20690;-67
2021/10/15 03:52:19;;;;;;;1999.90;999.90;;;;;;;6.49;100.00;95740.56;5046528;28;20193;-68
2021/10/15 03:54:47;;;;;;;1999.90;999.90;;;;;;;6.45;100.00;95736.97;5046454;28;20673;-67
2021/10/15 03:57:14;;;;;;;1999.90;999.90;;;;;;;6.35;100.00;95739.56;5047228;28;20200;-67
2021/10/15 03:59:42;;;;;;;1999.90;999.90;;;;;;;6.46;100.00;95741.88;5049948;28;20198;-67
2021/10/15 04:02:09;;;;;;;1999.90;999.90;;;;;;;6.40;100.00;95739.56;5050168;28;20208;-67
2021/10/15 04:04:36;;;;;;;1999.90;999.90;;;;;;;6.37;100.00;95729.75;5050050;28;20209;-67
2021/10/15 04:07:03;;;;;;;1999.90;999.90;;;;;;;6.36;100.00;95731.56;5049923;28;20208;-67
2021/10/15 04:09:30;;;;;;;1999.90;999.90;;;;;;;6.32;100.00;95732.34;5050059;28;20221;-67
2021/10/15 04:11:59;;;;;;;1999.90;999.90;;;;;;;6.39;100.00;95722.53;5049619;28;20199;-67
2021/10/15 04:14:26;;;;;;;1999.90;999.90;;;;;;;6.34;100.00;95725.09;5049791;28;20773;-68
2021/10/15 04:16:54;;;;;;;1999.90;999.90;;;;;;;6.34;100.00;95735.44;5049557;28;20204;-68
2021/10/15 04:19:21;;;;;;;1999.90;999.90;;;;;;;6.36;100.00;95723.06;5049681;28;20202;-68
2021/10/15 04:21:48;;;;;;;1999.90;999.90;;;;;;;6.34;100.00;95719.94;5049518;28;20202;-68
2021/10/15 04:24:15;;;;;;;1999.90;999.90;;;;;;;6.31;100.00;95723.06;5049670;28;20201;-68
2021/10/15 04:26:42;;;;;;;1999.90;999.90;;;;;;;6.42;100.00;95727.97;5049496;28;20622;-67
2021/10/15 04:29:11;;;;;;;1999.90;999.90;;;;;;;6.38;100.00;95732.06;5049483;28;20232;-67
2021/10/15 04:31:38;;;;;;;1999.90;999.90;;;;;;;6.31;100.00;95731.56;5048934;28;20311;-67
2021/10/15 04:34:05;;;;;;;1999.90;999.90;;;;;;;6.41;100.00;95735.94;5049596;28;20237;-67
2021/10/15 04:36:33;;;;;;;1999.90;999.90;;;;;;;6.41;100.00;95743.69;5049698;28;20201;-67
2021/10/15 04:39:00;;;;;;;1999.90;999.90;;;;;;;6.51;100.00;95746.25;5049650;28;20226;-67
2021/10/15 04:41:27;;;;;;;1999.90;999.90;;;;;;;6.54;100.00;95740.56;5049304;28;20201;-68
2021/10/15 04:43:56;;;;;;;1999.90;999.90;;;;;;;6.47;100.00;95745.25;5049273;28;20209;-68
2021/10/15 04:46:24;;;;;;;1999.90;999.90;;;;;;;6.52;100.00;95744.47;5049177;28;20201;-67
2021/10/15 04:48:51;;;;;;;1999.90;999.90;;;;;;;6.57;100.00;95747.81;5049265;28;20231;-67
2021/10/15 04:51:18;;;;;;;1999.90;999.90;;;;;;;6.53;100.00;95733.06;5049156;28;20201;-68
2021/10/15 04:53:46;;;;;;;1999.90;999.90;;;;;;;6.57;100.00;95727.16;5049243;28;20203;-67
2021/10/15 04:56:13;;;;;;;1999.90;999.90;;;;;;;6.57;100.00;95734.91;5049304;28;20577;-68
2021/10/15 04:58:40;;;;;;;1999.90;999.90;;;;;;;6.57;99.58;95737.47;5049414;28;20429;-67
2021/10/15 05:01:07;;;;;;;1999.90;999.90;;;;;;;6.56;99.74;95738.50;5048963;28;20196;-67
2021/10/15 05:03:36;;;;;;;1999.90;999.90;;;;;;;6.59;99.01;95743.13;5049074;28;20207;-67
2021/10/15 05:06:03;;;;;;;1999.90;999.90;;;;;;;6.57;98.85;95742.66;5049295;28;20699;-67
2021/10/15 05:08:34;;;;;;;1999.90;999.90;;;;;;;6.51;98.96;95748.06;5048717;28;20232;-67
2021/10/15 05:11:01;;;;;;;1999.90;999.90;;;;;;;6.52;100.00;95742.66;5048834;28;20186;-67
2021/10/15 05:13:28;;;;;;;1999.90;999.90;;;;;;;6.46;100.00;95733.38;5049301;28;20200;-67
2021/10/15 05:15:55;;;;;;;1999.90;999.90;;;;;;;6.60;99.98;95744.69;5048880;28;20211;-68
2021/10/15 05:18:23;;;;;;;1999.90;999.90;;;;;;;6.61;100.00;95746.25;5048938;28;20264;-68
2021/10/15 05:20:51;;;;;;;1999.90;999.90;;;;;;;6.66;99.38;95748.03;5048667;28;20601;-68
2021/10/15 05:23:18;;;;;;;1999.90;999.90;;;;;;;6.72;98.53;95758.09;5048881;28;20271;-68
2021/10/15 05:25:46;;;;;;;1999.90;999.90;;;;;;;6.65;99.57;95752.44;5048660;28;20586;-68
2021/10/15 05:28:13;;;;;;;1999.90;999.90;;;;;;;6.65;99.00;95747.25;5048956;28;20225;-68
2021/10/15 05:30:40;;;;;;;1999.90;999.90;;;;;;;6.66;98.97;95746.22;5048457;28;20236;-68
2021/10/15 05:33:08;;;;;;;1999.90;999.90;;;;;;;6.67;98.26;95739.25;5048724;28;20729;-67
2021/10/15 05:35:37;;;;;;;1999.90;999.90;;;;;;;6.64;99.45;95744.94;5048834;28;20211;-68
2021/10/15 05:38:06;;;;;;;1999.90;999.90;;;;;;;6.52;100.00;95736.72;5048781;28;20201;-68
2021/10/15 05:40:33;;;;;;;1999.90;999.90;;;;;;;6.48;100.00;95732.06;5048925;28;20201;-68
2021/10/15 05:43:01;;;;;;;1999.90;999.90;;;;;;;6.41;100.00;95728.22;5048827;28;20202;-68
2021/10/15 05:45:28;;;;;;;1999.90;999.90;;;;;;;6.46;100.00;95726.41;5048413;28;20202;-68
2021/10/15 05:47:55;;;;;;;1999.90;999.90;;;;;;;6.53;100.00;95723.53;5048445;28;20198;-68
2021/10/15 05:50:24;;;;;;;1999.90;999.90;;;;;;;6.52;100.00;95726.38;5048299;28;20209;-68
2021/10/15 05:52:51;;;;;;;1999.90;999.90;;;;;;;6.63;100.00;95733.84;5048147;28;20209;-68
2021/10/15 05:55:29;;;;;;;1999.90;999.90;;;;;;;6.61;100.00;95735.91;5048538;28;20209;-68
2021/10/15 06:00:49;;;;;;;1999.90;999.90;;;;;;;6.52;100.00;95742.66;5048605;28;20649;-68
2021/10/15 06:03:18;;;;;;;1999.90;999.90;;;;;;;6.55;100.00;95742.13;5047982;28;20208;-68
2021/10/15 06:16:48;;;;;;;1999.90;999.90;;;;;;;6.62;100.00;95721.19;5047655;27;20212;-68
2021/10/15 06:19:18;;;;;;;1999.90;999.90;;;;;;;6.55;100.00;95713.72;5047632;28;20199;-68
2021/10/15 06:21:45;;;;;;;1999.90;999.90;;;;;;;6.56;100.00;95712.69;5046768;28;20578;-68
2021/10/15 06:24:13;;;;;;;1999.90;999.90;;;;;;;6.62;100.00;95716.03;5048059;28;20204;-68
2021/10/15 06:26:42;;;;;;;1999.90;999.90;;;;;;;6.65;100.00;95712.91;5047981;28;20254;-69
2021/10/15 06:29:09;;;;;;;1999.90;999.90;;;;;;;6.63;100.00;95726.09;5047890;28;20220;-68
2021/10/15 06:31:36;;;;;;;1999.90;999.90;;;;;;;6.63;100.00;95723.50;5047528;28;20237;-68
2021/10/15 06:34:04;;;;;;;1999.90;999.90;;;;;;;6.61;100.00;95724.81;5047741;28;20210;-68
2021/10/15 06:36:31;;;;;;;1999.90;999.90;;;;;;;6.69;100.00;95727.63;5047705;28;20681;-68
2021/10/15 06:38:58;;;;;;;1999.90;999.90;;;;;;;6.58;100.00;95725.31;5047940;28;20205;-68
2021/10/15 06:41:26;;;;;;;1999.90;999.90;;;;;;;6.72;100.00;95724.53;5047615;28;20201;-68
2021/10/15 06:43:54;;;;;;;1999.90;999.90;;;;;;;6.76;100.00;95719.63;5047569;28;20202;-68
2021/10/15 06:46:21;;;;;;;1999.90;999.90;;;;;;;6.77;100.00;95723.75;5047509;28;20680;-68
2021/10/15 06:48:49;;;;;;;1999.90;999.90;;;;;;;6.78;100.00;95726.03;5047411;28;20705;-68
2021/10/15 06:51:16;;;;;;;1999.90;999.90;;;;;;;6.76;100.00;95727.34;5047384;28;20199;-68
2021/10/15 06:53:43;;;;;;;1999.90;999.90;;;;;;;6.79;100.00;95730.19;5047559;28;20197;-68
2021/10/15 06:56:10;;;;;;;1999.90;999.90;;;;;;;6.93;100.00;95720.81;5047609;28;20204;-68
2021/10/15 06:58:38;;;;;;;1999.90;999.90;;;;;;;6.97;100.00;95721.09;5047435;28;20201;-69
2021/10/15 07:01:07;;;;;;;1999.90;999.90;;;;;;;6.90;100.00;95725.75;5047477;28;20193;-68
2021/10/15 07:03:34;;;;;;;1999.90;999.90;;;;;;;6.86;100.00;95730.69;5047657;28;20197;-68
2021/10/15 07:06:01;;;;;;;1999.90;999.90;;;;;;;6.93;100.00;95725.22;5047417;28;20595;-68
2021/10/15 07:08:28;;;;;;;1999.90;999.90;;;;;;;6.82;100.00;95728.91;5047127;28;20214;-68
2021/10/15 07:10:55;;;;;;;1999.90;999.90;;;;;;;6.83;100.00;95727.84;5047154;28;20207;-68
2021/10/15 07:13:22;;;;;;;1999.90;999.90;;;;;;;6.92;100.00;95723.69;5047475;28;20201;-67
2021/10/15 07:15:49;;;;;;;1999.90;999.90;;;;;;;6.99;100.00;95715.66;5047174;28;20550;-68
2021/10/15 07:18:18;;;;;;;1999.90;999.90;;;;;;;6.88;100.00;95710.50;5047147;28;20206;-68
2021/10/15 07:20:47;;;;;;;1999.90;999.90;;;;;;;6.86;100.00;95710.03;5047204;28;20209;-68
2021/10/15 07:23:15;;;;;;;1999.90;999.90;;;;;;;6.84;100.00;95712.09;5047084;28;20200;-68
2021/10/15 07:25:46;;;;;;;1999.90;999.90;;;;;;;6.81;100.00;95715.19;5046772;28;20581;-68
2021/10/15 07:28:14;;;;;;;1999.90;999.90;;;;;;;6.78;100.00;95720.88;5047485;28;20948;-68
2021/10/15 07:30:41;;;;;;;1999.90;999.90;;;;;;;6.92;100.00;95727.03;5046763;28;20241;-68
2021/10/15 07:33:09;;;;;;;1999.90;999.90;;;;;;;6.93;100.00;95725.22;5046524;28;20208;-68
2021/10/15 07:35:37;;;;;;;1999.90;999.90;;;;;;;6.97;100.00;95717.75;5047074;28;20224;-68
2021/10/15 07:38:05;;;;;;;1999.90;999.90;;;;;;;6.95;100.00;95728.31;5047118;28;20197;-68
2021/10/15 07:40:32;;;;;;;1999.90;999.90;;;;;;;6.93;100.00;95720.81;5046871;28;20233;-68
2021/10/15 07:43:00;;;;;;;1999.90;999.90;;;;;;;6.93;100.00;95713.09;5047081;28;20236;-68
2021/10/15 07:45:28;;;;;;;1999.90;999.90;;;;;;;6.88;100.00;95715.69;5046963;28;20584;-67
2021/10/15 07:47:56;;;;;;;1999.90;999.90;;;;;;;7.00;100.00;95723.13;5047082;28;20283;-66
2021/10/15 07:50:24;;;;;;;1999.90;999.90;;;;;;;6.85;100.00;95716.22;5046516;28;20703;-67
2021/10/15 07:52:52;;;;;;;1999.90;999.90;;;;;;;6.85;100.00;95711.06;5046822;28;20194;-66
2021/10/15 07:55:20;;;;;;;1999.90;999.90;;;;;;;6.94;100.00;95719.03;5046627;28;20217;-67
2021/10/15 07:57:47;;;;;;;1999.90;999.90;;;;;;;6.84;100.00;95719.84;5046893;28;20203;-69
2021/10/15 08:00:15;;;;;;;1999.90;999.90;;;;;;;6.88;100.00;95712.31;5046770;28;20201;-69
2021/10/15 08:02:42;;;;;;;1999.90;999.90;;;;;;;6.95;100.00;95710.25;5046451;28;20205;-68
2021/10/15 08:05:13;;;;;;;1999.90;999.90;;;;;;;6.99;100.00;95710.47;5046488;28;20235;-68
2021/10/15 08:07:40;;;;;;;1999.90;999.90;;;;;;;6.97;100.00;95707.41;5046714;28;20351;-69
2021/10/15 08:10:11;;;;;;;1999.90;999.90;;;;;;;7.12;100.00;95704.75;5046328;28;20224;-68
2021/10/15 08:12:38;;;;;;;1999.90;999.90;;;;;;;7.13;100.00;95703.69;5046977;28;20207;-69
2021/10/15 08:15:06;;;;;;;1999.90;999.90;;;;;;;7.16;100.00;95703.97;5046626;28;20197;-68
2021/10/15 08:17:34;;;;;;;1999.90;999.90;;;;;;;7.25;100.00;95711.91;5046540;28;20200;-68
2021/10/15 08:20:01;;;;;;;1999.90;999.90;;;;;;;7.23;100.00;95708.81;5046306;28;20203;-68
2021/10/15 08:22:28;;;;;;;1999.90;999.90;;;;;;;7.19;100.00;95700.81;5046211;28;20707;-68
2021/10/15 08:24:55;;;;;;;1999.90;999.90;;;;;;;7.19;100.00;95700.81;5045868;28;20656;-68
2021/10/15 08:27:23;;;;;;;1999.90;999.90;;;;;;;7.27;100.00;95702.09;5046108;28;20212;-68
2021/10/15 08:29:50;;;;;;;1999.90;999.90;;;;;;;7.37;100.00;95696.88;5045963;28;20740;-68
2021/10/15 08:32:18;;;;;;;1999.90;999.90;;;;;;;7.50;100.00;95700.66;5046421;28;20673;-68
2021/10/15 08:34:45;;;;;;;1999.90;999.90;;;;;;;7.55;100.00;95693.66;5046579;28;20664;-68
2021/10/15 08:37:12;;;;;;;1999.90;999.90;;;;;;;7.61;100.00;95692.59;5046172;28;20201;-68
2021/10/15 08:39:39;;;;;;;1999.90;999.90;;;;;;;7.54;100.00;95696.50;5046078;28;20196;-68
2021/10/15 08:42:06;;;;;;;1999.90;999.90;;;;;;;7.74;100.00;95686.78;5046368;28;20205;-68
2021/10/15 08:44:36;;;;;;;1999.90;999.90;;;;;;;7.79;100.00;95693.75;5047741;28;20208;-68
2021/10/15 08:47:04;;;;;;;1999.90;999.90;;;;;;;7.79;100.00;95688.56;5049948;28;20696;-68
2021/10/15 08:49:31;;;;;;;1999.90;999.90;;;;;;;7.81;100.00;95686.50;5049507;28;20224;-68
2021/10/15 08:51:59;;;;;;;1999.90;999.90;;;;;;;7.87;99.89;95692.41;5049186;28;20197;-68
2021/10/15 08:54:27;;;;;;;1999.90;999.90;;;;;;;7.84;100.00;95692.94;5049388;28;20201;-68
2021/10/15 08:56:57;;;;;;;1999.90;999.90;;;;;;;7.89;100.00;95692.88;5049232;28;20205;-68
2021/10/15 08:59:38;;;;;;;1999.90;999.90;;;;;;;7.87;100.00;95684.63;5049207;28;20197;-68
2021/10/15 09:02:10;;;;;;;1999.90;999.90;;;;;;;7.90;100.00;95691.84;5048978;28;20192;-68
2021/10/15 09:04:46;;;;;;;1999.90;999.90;;;;;;;7.93;100.00;95688.72;5049308;28;20710;-68
2021/10/15 09:07:15;;;;;;;1999.90;999.90;;;;;;;7.86;99.67;95688.25;5049371;28;20276;-68
2021/10/15 09:09:42;;;;;;;1999.90;999.90;;;;;;;7.90;99.75;95678.91;5049116;28;20217;-68
2021/10/15 09:12:11;;;;;;;1999.90;999.90;;;;;;;7.93;100.00;95686.13;5049105;28;20232;-68
2021/10/15 09:14:40;;;;;;;1999.90;999.90;;;;;;;7.94;100.00;95670.34;5048814;28;20236;-68
2021/10/15 09:17:10;;;;;;;1999.90;999.90;;;;;;;8.01;100.00;95675.97;5048620;28;20583;-68
2021/10/15 09:19:40;;;;;;;1999.90;999.90;;;;;;;8.10;100.00;95686.50;5048611;28;20194;-68
2021/10/15 09:22:20;;;;;;;1999.90;999.90;;;;;;;8.12;100.00;95692.94;5049009;28;20207;-68
2021/10/15 09:24:53;;;;;;;1999.90;999.90;;;;;;;8.16;100.00;95688.78;5048708;28;20193;-68
2021/10/15 09:27:24;;;;;;;1999.90;999.90;;;;;;;8.14;100.00;95692.69;5048539;28;20181;-68
2021/10/15 09:29:55;;;;;;;1999.90;999.90;;;;;;;8.19;100.00;95690.03;5048474;28;20233;-68
2021/10/15 09:32:24;;;;;;;1999.90;999.90;;;;;;;8.27;100.00;95694.63;5048593;28;20225;-68
2021/10/15 09:34:52;;;;;;;1999.90;999.90;;;;;;;8.25;100.00;95691.56;5048705;28;20219;-68
2021/10/15 09:37:22;;;;;;;1999.90;999.90;;;;;;;8.29;100.00;95692.53;5048416;28;20201;-68
2021/10/15 09:39:49;;;;;;;1999.90;999.90;;;;;;;8.40;100.00;95694.03;5048484;28;20628;-68
2021/10/15 09:42:23;;;;;;;1999.90;999.90;;;;;;;8.38;98.86;95697.94;5048787;28;20208;-68
2021/10/15 09:44:51;;;;;;;1999.90;999.90;;;;;;;8.34;100.00;95689.94;5048547;28;20189;-68
2021/10/15 09:47:23;;;;;;;1999.90;999.90;;;;;;;8.39;100.00;95687.31;5048361;28;20675;-69
2021/10/15 09:49:56;;;;;;;1999.90;999.90;;;;;;;8.34;100.00;95692.53;5048285;28;20211;-69
2021/10/15 09:52:38;;;;;;;1999.90;999.90;;;;;;;8.39;100.00;95681.34;5048878;28;20629;-69
2021/10/15 09:55:17;;;;;;;1999.90;999.90;;;;;;;8.30;100.00;95683.00;5036290;28;20198;-68
2021/10/15 09:57:45;;;;;;;1999.90;999.90;;;;;;;8.23;100.00;95696.22;5048356;28;20569;-68
2021/10/15 10:00:15;;;;;;;1999.90;999.90;;;;;;;8.18;100.00;95697.03;5048272;28;20208;-68
2021/10/15 10:02:44;;;;;;;1999.90;999.90;;;;;;;8.12;100.00;95697.34;5048184;28;20289;-68
2021/10/15 10:05:14;;;;;;;1999.90;999.90;;;;;;;8.16;100.00;95703.53;5048447;28;20576;-68
2021/10/15 10:07:42;;;;;;;1999.90;999.90;;;;;;;8.11;100.00;95701.00;5048142;28;20205;-68
2021/10/15 10:10:11;;;;;;;1999.90;999.90;;;;;;;8.12;100.00;95689.56;5048281;28;20244;-68
2021/10/15 10:12:40;;;;;;;1999.90;999.90;;;;;;;8.08;100.00;95698.94;5048028;28;20206;-68
2021/10/15 10:15:10;;;;;;;1999.90;999.90;;;;;;;7.97;100.00;95695.66;5048245;28;20197;-68
2021/10/15 10:17:43;;;;;;;1999.90;999.90;;;;;;;8.05;100.00;95691.72;5048043;28;20197;-68
2021/10/15 10:20:17;;;;;;;1999.90;999.90;;;;;;;7.98;100.00;95686.84;5047850;28;20193;-68
2021/10/15 10:22:51;;;;;;;1999.90;999.90;;;;;;;7.94;100.00;95685.09;5047790;28;20200;-69
2021/10/15 10:25:24;;;;;;;1999.90;999.90;;;;;;;7.85;100.00;95686.72;5048200;28;20615;-69
2021/10/15 10:27:53;;;;;;;1999.90;999.90;;;;;;;7.83;100.00;95692.16;5047896;28;20189;-68
2021/10/15 10:30:39;;;;;;;1999.90;999.90;;;;;;;7.89;100.00;95687.72;5047423;28;20275;-68
2021/10/15 10:33:07;;;;;;;1999.90;999.90;;;;;;;7.84;100.00;95675.59;5047903;28;20189;-68
2021/10/15 10:35:36;;;;;;;1999.90;999.90;;;;;;;7.85;100.00;95668.59;5047714;28;20209;-68
2021/10/15 10:38:33;;;;;;;1999.90;999.90;;;;;;;7.83;100.00;95657.75;5047796;28;20574;-68
2021/10/15 10:41:21;;;;;;;1999.90;999.90;;;;;;;7.93;100.00;95658.44;5005751;28;20183;-68
2021/10/15 10:44:15;;;;;;;1999.90;999.90;;;;;;;8.05;100.00;95664.03;5043573;28;20201;-68
2021/10/15 10:46:44;;;;;;;1999.90;999.90;;;;;;;7.92;100.00;95661.31;5047863;28;20660;-68
2021/10/15 10:49:23;;;;;;;1999.90;999.90;;;;;;;7.91;100.00;95649.41;5047606;28;20205;-68
2021/10/15 10:52:22;;;;;;;1999.90;999.90;;;;;;;7.78;100.00;95646.41;5047716;28;20211;-69
2021/10/15 10:54:49;;;;;;;1999.90;999.90;;;;;;;7.79;100.00;95642.00;5002985;27;20201;-68
2021/10/15 10:57:23;;;;;;;1999.90;999.90;;;;;;;7.75;100.00;95641.78;5047255;28;20210;-68
2021/10/15 10:59:52;;;;;;;1999.90;999.90;;;;;;;7.65;100.00;95631.50;5047713;28;20181;-68
2021/10/15 11:02:20;;;;;;;1999.90;999.90;;;;;;;7.60;100.00;95634.13;5047280;28;20253;-68
2021/10/15 11:04:57;;;;;;;1999.90;999.90;;;;;;;7.71;100.00;95624.50;5047301;28;20186;-68
2021/10/15 11:07:30;;;;;;;1999.90;999.90;;;;;;;7.61;100.00;95632.31;5046948;28;20268;-68
2021/10/15 11:10:00;;;;;;;1999.90;999.90;;;;;;;7.73;100.00;95633.50;5047592;28;20248;-68
2021/10/15 11:13:00;;;;;;;1999.90;999.90;;;;;;;7.70;100.00;95628.88;5046982;28;20201;-68
2021/10/15 11:15:31;;;;;;;1999.90;999.90;;;;;;;7.77;100.00;95615.66;5047450;28;20304;-68